Time;durP1;ratioP1;P1;durP2;ratioP2;P2;SDS_P1;SDS_P2;PMS_P1;PMS_P2;Temp;Humidity;BMP_temperature;BMP_pressure;BME280_temperature;BME280_humidity;BME280_pressure;Samples;Min_cycle;Max_cycle;Signal;HPM_P1;HPM_P2
2023/08/11 00:02:22;;;;;;;;;;;;;;;28.54;41.63;94704.97;5012135;28;9004;-86
2023/08/11 00:04:51;;;;;;;;;;;;;;;28.53;40.89;94702.72;5013879;28;8905;-86
2023/08/11 00:07:17;;;;;;;;;;;;;;;28.48;41.50;94707.06;5010468;28;7234;-86
2023/08/11 00:09:44;;;;;;;;;;;;;;;28.54;41.32;94715.28;5012844;28;8952;-86
2023/08/11 00:12:10;;;;;;;;;;;;;;;28.52;41.33;94715.81;5020446;28;8908;-86
2023/08/11 00:14:40;;;;;;;;;;;;;;;28.55;41.28;94716.78;5009412;28;8806;-85
2023/08/11 00:17:05;;;;;;;;;;;;;;;28.57;40.68;94719.78;5027318;28;9015;-86
2023/08/11 00:19:32;;;;;;;;;;;;;;;28.56;41.53;94713.50;5010372;28;9118;-86
2023/08/11 00:21:58;;;;;;;;;;;;;;;28.51;40.93;94710.81;5008785;28;9001;-86
2023/08/11 00:24:25;;;;;;;;;;;;;;;28.50;41.41;94712.81;5009849;28;9028;-86
2023/08/11 00:26:52;;;;;;;;;;;;;;;28.52;41.18;94723.34;5023202;28;7327;-86
2023/08/11 00:29:18;;;;;;;;;;;;;;;28.52;41.47;94724.13;5023993;28;6990;-86
2023/08/11 00:31:48;;;;;;;;;;;;;;;28.53;40.92;94725.63;5011504;28;6985;-86
2023/08/11 00:34:20;;;;;;;;;;;;;;;28.55;41.54;94723.09;5032983;28;8739;-86
2023/08/11 00:36:48;;;;;;;;;;;;;;;28.52;41.68;94717.81;5024329;28;8752;-86
2023/08/11 00:39:15;;;;;;;;;;;;;;;28.47;41.23;94719.38;5032904;28;9025;-86
2023/08/11 00:41:42;;;;;;;;;;;;;;;28.50;41.52;94723.88;5026033;28;7282;-86
2023/08/11 00:44:10;;;;;;;;;;;;;;;28.50;41.60;94732.19;5029822;28;7047;-86
2023/08/11 00:46:36;;;;;;;;;;;;;;;28.51;41.48;94730.94;5019960;28;8862;-86
2023/08/11 00:49:05;;;;;;;;;;;;;;;28.52;41.18;94724.13;5027967;28;8576;-86
2023/08/11 00:51:34;;;;;;;;;;;;;;;28.48;41.03;94723.66;5017689;28;6989;-85
2023/08/11 00:54:03;;;;;;;;;;;;;;;28.53;41.62;94725.63;5024816;28;7079;-86
2023/08/11 00:56:29;;;;;;;;;;;;;;;28.48;41.13;94715.38;5006992;28;7233;-86
2023/08/11 00:59:02;;;;;;;;;;;;;;;28.55;41.11;94722.31;5012320;28;9354;-86
2023/08/11 01:01:29;;;;;;;;;;;;;;;28.56;41.50;94727.34;5009515;28;8591;-86
2023/08/11 01:03:57;;;;;;;;;;;;;;;28.55;40.73;94717.53;5020204;28;7552;-86
2023/08/11 01:06:42;;;;;;;;;;;;;;;28.58;41.53;94721.31;5035010;28;9012;-86
2023/08/11 01:09:31;;;;;;;;;;;;;;;28.57;41.14;94730.84;5022069;28;8701;-86
2023/08/11 01:12:18;;;;;;;;;;;;;;;28.56;41.25;94724.56;5000257;28;7001;-86
2023/08/11 01:15:00;;;;;;;;;;;;;;;28.55;41.40;94728.63;4993369;28;7001;-86
2023/08/11 01:17:32;;;;;;;;;;;;;;;28.54;41.47;94738.19;4969396;28;7268;-86
2023/08/11 01:20:10;;;;;;;;;;;;;;;28.54;41.46;94732.63;5007795;28;9085;-86
2023/08/11 01:22:43;;;;;;;;;;;;;;;28.52;41.25;94729.66;5008689;28;7573;-86
2023/08/11 01:25:12;;;;;;;;;;;;;;;28.52;40.93;94728.91;4993604;28;8982;-86
2023/08/11 01:27:55;;;;;;;;;;;;;;;28.53;41.08;94735.94;4989051;28;6893;-86
2023/08/11 01:30:22;;;;;;;;;;;;;;;28.48;41.27;94728.44;5005586;28;9024;-86
2023/08/11 01:32:51;;;;;;;;;;;;;;;28.48;40.82;94728.44;5007755;28;9741;-86
2023/08/11 01:35:18;;;;;;;;;;;;;;;28.47;40.96;94738.75;5007513;28;7281;-86
2023/08/11 01:37:47;;;;;;;;;;;;;;;28.50;40.75;94743.25;5007537;28;8790;-86
2023/08/11 01:40:20;;;;;;;;;;;;;;;28.53;40.66;94742.22;5003029;28;8629;-86
2023/08/11 01:42:49;;;;;;;;;;;;;;;28.51;40.99;94738.47;4995568;28;9041;-86
2023/08/11 01:45:17;;;;;;;;;;;;;;;28.51;40.98;94742.00;4986920;28;7253;-86
2023/08/11 01:47:47;;;;;;;;;;;;;;;28.50;41.02;94743.25;5005823;28;9042;-86
2023/08/11 01:50:16;;;;;;;;;;;;;;;28.52;41.40;94746.25;5011859;28;7388;-86
2023/08/11 01:52:45;;;;;;;;;;;;;;;28.46;41.58;94742.06;5025967;28;9018;-87
2023/08/11 01:55:15;;;;;;;;;;;;;;;28.52;41.47;94753.81;5029953;28;7255;-86
2023/08/11 01:57:41;;;;;;;;;;;;;;;28.50;41.03;94757.09;5014655;28;8780;-86
2023/08/11 02:00:16;;;;;;;;;;;;;;;28.50;41.56;94748.78;5026454;28;8735;-86
2023/08/11 02:02:44;;;;;;;;;;;;;;;28.44;41.30;94745.34;5011270;28;8777;-86
2023/08/11 02:05:12;;;;;;;;;;;;;;;28.45;41.21;94751.66;5026617;28;7461;-86
2023/08/11 02:07:40;;;;;;;;;;;;;;;28.46;41.02;94753.13;5041270;28;8796;-86
2023/08/11 02:10:16;;;;;;;;;;;;;;;28.45;41.04;94749.59;5019670;28;9054;-86
2023/08/11 02:12:42;;;;;;;;;;;;;;;28.46;40.71;94764.94;5014967;28;9024;-86
2023/08/11 02:15:10;;;;;;;;;;;;;;;28.43;40.81;94754.19;5016910;28;7023;-86
2023/08/11 02:17:37;;;;;;;;;;;;;;;28.41;40.83;94751.91;5004783;28;8148;-86
2023/08/11 02:20:13;;;;;;;;;;;;;;;28.46;41.12;94753.13;5031671;28;9054;-86
2023/08/11 02:22:39;;;;;;;;;;;;;;;28.43;41.34;94754.91;5026857;28;9093;-86
2023/08/11 02:25:15;;;;;;;;;;;;;;;28.41;41.22;94746.38;5024581;28;9059;-86
2023/08/11 02:27:42;;;;;;;;;;;;;;;28.44;41.06;94750.13;5025348;28;7020;-86
2023/08/11 02:30:11;;;;;;;;;;;;;;;28.46;41.06;94753.13;5021145;28;9133;-86
2023/08/11 02:32:39;;;;;;;;;;;;;;;28.38;40.86;94739.88;5025090;28;7307;-86
2023/08/11 02:35:06;;;;;;;;;;;;;;;28.45;40.90;94748.88;5008427;28;9104;-86
2023/08/11 02:37:32;;;;;;;;;;;;;;;28.37;40.87;94745.94;5017982;28;8790;-86
2023/08/11 02:39:58;;;;;;;;;;;;;;;28.39;41.13;94754.47;5025756;28;9023;-87
2023/08/11 02:42:30;;;;;;;;;;;;;;;28.41;41.05;94751.16;5002349;28;8803;-86
2023/08/11 02:44:57;;;;;;;;;;;;;;;28.42;41.39;94758.97;5025649;28;9342;-86
2023/08/11 02:47:23;;;;;;;;;;;;;;;28.38;41.56;94750.22;5024270;28;8644;-86
2023/08/11 02:49:49;;;;;;;;;;;;;;;28.38;41.49;94747.44;5010925;28;7362;-86
2023/08/11 02:52:16;;;;;;;;;;;;;;;28.34;41.14;94742.19;5027930;28;8757;-86
2023/08/11 02:54:42;;;;;;;;;;;;;;;28.38;40.84;94752.97;5024556;28;8987;-86
2023/08/11 02:57:08;;;;;;;;;;;;;;;28.36;41.32;94752.75;5007663;28;7300;-86
2023/08/11 02:59:34;;;;;;;;;;;;;;;28.41;41.55;94762.22;5008999;28;9169;-86
2023/08/11 03:02:01;;;;;;;;;;;;;;;28.38;41.11;94757.75;5031813;28;7032;-86
2023/08/11 03:04:27;;;;;;;;;;;;;;;28.34;41.14;94755.25;5014493;28;6873;-86
2023/08/11 03:06:54;;;;;;;;;;;;;;;28.36;41.65;94752.75;5020566;28;8626;-86
2023/08/11 03:09:20;;;;;;;;;;;;;;;28.33;41.24;94745.47;5020668;28;8935;-86
2023/08/11 03:11:46;;;;;;;;;;;;;;;28.36;41.30;94753.47;5017848;28;7519;-86
2023/08/11 03:14:13;;;;;;;;;;;;;;;28.30;41.39;94747.28;5023848;28;7614;-86
2023/08/11 03:16:39;;;;;;;;;;;;;;;28.33;41.04;94751.00;5010164;28;8695;-86
2023/08/11 03:19:05;;;;;;;;;;;;;;;28.36;40.79;94752.75;5024876;28;9041;-86
2023/08/11 03:21:33;;;;;;;;;;;;;;;28.33;40.95;94751.00;5022699;28;7242;-86
2023/08/11 03:24:02;;;;;;;;;;;;;;;28.32;41.35;94755.03;5022722;28;8781;-86
2023/08/11 03:26:29;;;;;;;;;;;;;;;28.34;41.22;94752.50;5016517;28;8718;-86
2023/08/11 03:28:59;;;;;;;;;;;;;;;28.35;40.93;94754.00;5005840;28;8775;-86
2023/08/11 03:31:26;;;;;;;;;;;;;;;28.34;40.90;94756.03;5020454;28;9014;-86
2023/08/11 03:33:53;;;;;;;;;;;;;;;28.34;41.49;94749.72;5013732;28;9083;-86
2023/08/11 03:36:19;;;;;;;;;;;;;;;28.33;41.29;94748.25;5010005;28;9807;-86
2023/08/11 03:38:45;;;;;;;;;;;;;;;28.35;41.23;94745.72;5023498;28;9107;-85
2023/08/11 03:41:13;;;;;;;;;;;;;;;28.32;41.34;94749.50;5012578;28;9018;-85
2023/08/11 03:43:40;;;;;;;;;;;;;;;28.32;40.67;94753.03;5013120;28;9039;-86
2023/08/11 03:46:06;;;;;;;;;;;;;;;28.28;41.25;94749.81;5017071;28;7471;-86
2023/08/11 03:48:32;;;;;;;;;;;;;;;28.29;40.76;94753.31;5005974;28;8668;-86
2023/08/11 03:51:02;;;;;;;;;;;;;;;28.27;40.99;94753.09;5014082;28;8926;-86
2023/08/11 03:53:30;;;;;;;;;;;;;;;28.27;41.18;94759.38;5024621;28;8084;-86
2023/08/11 03:55:58;;;;;;;;;;;;;;;28.26;41.45;94751.59;5027430;28;9542;-86
2023/08/11 03:58:24;;;;;;;;;;;;;;;28.28;40.99;94762.88;5025184;28;9129;-86
2023/08/11 04:00:50;;;;;;;;;;;;;;;28.24;40.74;94754.13;5023618;28;8745;-86
2023/08/11 04:03:16;;;;;;;;;;;;;;;28.27;41.25;94762.13;5023425;28;7320;-86
2023/08/11 04:05:43;;;;;;;;;;;;;;;28.25;41.15;94761.19;5022593;28;8903;-86
2023/08/11 04:08:09;;;;;;;;;;;;;;;28.27;40.98;94766.94;5019627;28;8938;-86
2023/08/11 04:10:35;;;;;;;;;;;;;;;28.18;40.95;94758.97;5028164;28;9010;-86
2023/08/11 04:13:02;;;;;;;;;;;;;;;28.20;41.27;94773.78;5025625;28;6972;-86
2023/08/11 04:15:31;;;;;;;;;;;;;;;28.13;41.34;94757.00;5025266;28;8650;-86
2023/08/11 04:17:59;;;;;;;;;;;;;;;28.16;40.68;94767.06;5028394;28;9039;-86
2023/08/11 04:20:28;;;;;;;;;;;;;;;28.14;41.10;94761.28;5013231;28;7157;-86
2023/08/11 04:22:55;;;;;;;;;;;;;;;28.13;41.33;94768.84;5010283;28;8650;-86
2023/08/11 04:25:22;;;;;;;;;;;;;;;28.11;41.43;94765.84;5007289;28;6916;-86
2023/08/11 04:27:48;;;;;;;;;;;;;;;28.08;41.59;94766.88;5011212;28;8729;-86
2023/08/11 04:30:17;;;;;;;;;;;;;;;28.07;41.31;94761.84;5008423;28;8783;-86
2023/08/11 04:32:43;;;;;;;;;;;;;;;28.08;40.76;94766.88;5029105;28;8698;-86
2023/08/11 04:35:09;;;;;;;;;;;;;;;28.09;41.54;94770.38;5019055;28;8819;-86
2023/08/11 04:37:36;;;;;;;;;;;;;;;28.04;41.28;94765.66;5012834;28;8806;-86
2023/08/11 04:40:09;;;;;;;;;;;;;;;28.08;40.90;94774.41;5014906;28;8695;-86
2023/08/11 04:42:37;;;;;;;;;;;;;;;28.05;41.30;94781.00;5027574;28;8744;-87
2023/08/11 04:45:04;;;;;;;;;;;;;;;28.01;41.11;94775.75;5028268;28;9311;-86
2023/08/11 04:47:30;;;;;;;;;;;;;;;28.09;41.59;94784.22;5006093;28;9076;-86
2023/08/11 04:50:00;;;;;;;;;;;;;;;28.07;41.05;94787.50;5024726;28;8892;-86
2023/08/11 04:52:29;;;;;;;;;;;;;;;27.99;41.38;94778.25;5023812;28;6888;-86
2023/08/11 04:55:06;;;;;;;;;;;;;;;28.00;41.42;94773.50;5024133;28;6895;-86
2023/08/11 04:57:38;;;;;;;;;;;;;;;28.04;41.70;94779.47;5022767;28;8872;-86
2023/08/11 05:00:13;;;;;;;;;;;;;;;28.03;40.94;94786.28;5019270;28;9013;-86
2023/08/11 05:02:44;;;;;;;;;;;;;;;28.04;41.24;94785.00;5020181;28;8666;-87
2023/08/11 05:05:22;;;;;;;;;;;;;;;27.99;41.42;94783.06;5022992;28;7133;-86
2023/08/11 05:07:48;;;;;;;;;;;;;;;28.00;41.30;94779.03;5022440;28;7074;-86
2023/08/11 05:10:21;;;;;;;;;;;;;;;28.01;41.49;94777.75;5029822;28;7287;-86
2023/08/11 05:12:49;;;;;;;;;;;;;;;27.99;41.02;94769.25;5026712;28;8597;-86
2023/08/11 05:15:16;;;;;;;;;;;;;;;28.03;41.09;94780.75;5026255;28;9091;-86
2023/08/11 05:17:42;;;;;;;;;;;;;;;28.01;41.21;94775.00;5024030;28;8595;-86
2023/08/11 05:20:10;;;;;;;;;;;;;;;27.98;40.88;94776.78;5018680;28;8702;-86
2023/08/11 05:22:37;;;;;;;;;;;;;;;27.99;41.68;94777.53;5019600;28;8714;-85
2023/08/11 05:25:04;;;;;;;;;;;;;;;28.01;40.98;94788.81;5027182;28;7599;-86
2023/08/11 05:27:31;;;;;;;;;;;;;;;28.03;41.60;94784.28;5004427;28;6995;-86
2023/08/11 05:29:57;;;;;;;;;;;;;;;28.04;40.98;94791.28;5010585;28;8713;-86
2023/08/11 05:32:23;;;;;;;;;;;;;;;28.04;41.65;94799.59;5020704;28;8785;-86
2023/08/11 05:34:50;;;;;;;;;;;;;;;28.02;41.10;94793.06;5007466;28;7658;-86
2023/08/11 05:37:17;;;;;;;;;;;;;;;28.02;41.04;94798.59;5029651;28;9011;-86
2023/08/11 05:39:43;;;;;;;;;;;;;;;28.02;41.23;94804.88;5017082;28;6950;-86
2023/08/11 05:42:09;;;;;;;;;;;;;;;28.05;41.26;94803.13;5007423;28;9100;-86
2023/08/11 05:44:36;;;;;;;;;;;;;;;28.04;41.17;94807.13;5023490;28;8756;-86
2023/08/11 05:47:04;;;;;;;;;;;;;;;27.96;41.33;94795.88;5025436;28;8721;-87
2023/08/11 05:49:30;;;;;;;;;;;;;;;28.00;41.33;94806.66;5024086;28;8493;-88
2023/08/11 05:51:56;;;;;;;;;;;;;;;27.97;41.78;94802.16;5007370;28;8822;-88
2023/08/11 05:54:22;;;;;;;;;;;;;;;27.99;41.12;94810.72;5013035;28;7514;-88
2023/08/11 05:56:49;;;;;;;;;;;;;;;27.96;41.11;94806.19;5012094;28;8605;-88
2023/08/11 05:59:16;;;;;;;;;;;;;;;27.94;41.33;94803.94;5018004;28;7016;-87
2023/08/11 06:01:42;;;;;;;;;;;;;;;27.98;41.25;94809.97;5027435;28;8600;-88
2023/08/11 06:04:09;;;;;;;;;;;;;;;27.95;40.90;94801.94;5026426;28;9061;-88
2023/08/11 06:06:37;;;;;;;;;;;;;;;27.96;41.36;94809.69;4998458;28;7235;-88
2023/08/11 06:09:04;;;;;;;;;;;;;;;28.02;41.20;94817.97;5009746;28;9053;-88
2023/08/11 06:11:32;;;;;;;;;;;;;;;28.05;41.52;94817.69;5007477;28;8679;-88
2023/08/11 06:13:59;;;;;;;;;;;;;;;28.00;41.06;94806.66;5025729;28;7341;-87
2023/08/11 06:16:25;;;;;;;;;;;;;;;28.12;41.17;94821.91;5029642;28;7242;-87
2023/08/11 06:18:51;;;;;;;;;;;;;;;28.12;41.33;94816.38;5015157;28;7023;-87
2023/08/11 06:21:17;;;;;;;;;;;;;;;28.08;40.68;94818.66;5004501;28;8757;-87
2023/08/11 06:23:44;;;;;;;;;;;;;;;28.05;41.29;94805.88;5021964;28;7260;-88
2023/08/11 06:26:11;;;;;;;;;;;;;;;28.14;41.11;94820.09;5006969;28;9013;-87
2023/08/11 06:28:37;;;;;;;;;;;;;;;28.20;41.21;94820.06;5008359;28;6870;-87
2023/08/11 06:31:05;;;;;;;;;;;;;;;28.20;41.00;94825.59;5005888;28;9007;-87
2023/08/11 06:33:31;;;;;;;;;;;;;;;28.16;40.76;94819.59;5008964;28;9083;-88
2023/08/11 06:35:57;;;;;;;;;;;;;;;28.16;41.54;94816.84;5008256;28;8700;-87
2023/08/11 06:38:30;;;;;;;;;;;;;;;28.19;41.04;94822.06;5009073;28;8819;-87
2023/08/11 06:41:05;;;;;;;;;;;;;;;28.23;40.79;94830.09;5009593;28;7032;-88
2023/08/11 06:43:31;;;;;;;;;;;;;;;28.21;41.03;94814.00;5019675;28;7001;-88
2023/08/11 06:45:57;;;;;;;;;;;;;;;28.23;41.56;94817.00;5003728;28;9071;-88
2023/08/11 06:48:23;;;;;;;;;;;;;;;28.26;41.26;94827.03;5015723;28;9052;-87
2023/08/11 06:50:49;;;;;;;;;;;;;;;28.23;40.97;94819.03;5023959;28;9040;-87
2023/08/11 06:53:15;;;;;;;;;;;;;;;28.25;41.55;94813.72;5003531;28;9066;-88
2023/08/11 06:55:42;;;;;;;;;;;;;;;28.22;41.44;94812.75;5004742;28;9040;-87
2023/08/11 06:58:09;;;;;;;;;;;;;;;28.27;41.09;94819.50;5021515;28;9114;-85
2023/08/11 07:00:37;;;;;;;;;;;;;;;28.22;41.24;94821.03;5011917;28;7024;-86
2023/08/11 07:03:04;;;;;;;;;;;;;;;28.24;41.10;94815.75;5007664;28;8766;-86
2023/08/11 07:05:30;;;;;;;;;;;;;;;28.26;41.49;94820.75;5003862;28;8867;-86
2023/08/11 07:07:56;;;;;;;;;;;;;;;28.24;40.81;94817.75;5021074;28;9037;-86
2023/08/11 07:10:22;;;;;;;;;;;;;;;28.21;40.86;94811.22;5029981;28;7084;-86
2023/08/11 07:12:51;;;;;;;;;;;;;;;28.27;41.09;94819.50;5009736;28;9801;-86
2023/08/11 07:15:18;;;;;;;;;;;;;;;28.26;41.29;94817.97;5011537;28;9036;-86
2023/08/11 07:17:44;;;;;;;;;;;;;;;28.25;40.96;94819.25;5006447;28;8756;-86
2023/08/11 07:20:12;;;;;;;;;;;;;;;28.26;41.41;94824.28;5014527;28;8754;-86
2023/08/11 07:22:38;;;;;;;;;;;;;;;28.23;41.23;94813.50;5013927;28;7344;-86
2023/08/11 07:25:05;;;;;;;;;;;;;;;28.25;41.44;94822.75;5028787;28;9109;-87
2023/08/11 07:27:31;;;;;;;;;;;;;;;28.28;41.52;94821.72;5023585;28;9118;-86
2023/08/11 07:29:58;;;;;;;;;;;;;;;28.30;41.83;94824.72;5015368;28;8771;-86
2023/08/11 07:32:24;;;;;;;;;;;;;;;28.30;42.20;94821.22;5010475;28;8761;-86
2023/08/11 07:34:51;;;;;;;;;;;;;;;28.32;42.05;94826.97;5008787;28;8572;-87
2023/08/11 07:37:23;;;;;;;;;;;;;;;28.31;41.97;94819.94;5027313;28;8896;-86
2023/08/11 07:39:49;;;;;;;;;;;;;;;28.31;42.06;94825.47;5015555;28;7328;-84
2023/08/11 07:42:15;;;;;;;;;;;;;;;28.32;42.34;94829.72;5009604;28;9347;-85
2023/08/11 07:44:43;;;;;;;;;;;;;;;28.31;41.82;94817.19;5008614;28;9074;-84
2023/08/11 07:47:09;;;;;;;;;;;;;;;28.32;42.02;94813.88;5031694;28;9092;-84
2023/08/11 07:49:35;;;;;;;;;;;;;;;28.32;41.99;94816.66;5025115;28;7125;-85
2023/08/11 07:52:01;;;;;;;;;;;;;;;28.36;41.55;94830.22;5013083;28;9105;-85
2023/08/11 07:54:37;;;;;;;;;;;;;;;28.31;41.40;94826.25;5027817;28;9237;-85
2023/08/11 07:57:11;;;;;;;;;;;;;;;28.36;41.77;94838.53;5025411;28;7501;-85
2023/08/11 07:59:37;;;;;;;;;;;;;;;28.35;41.81;94837.00;5008808;28;8770;-85
2023/08/11 08:02:03;;;;;;;;;;;;;;;28.36;42.09;94838.53;5011342;28;7057;-86
2023/08/11 08:04:30;;;;;;;;;;;;;;;28.32;41.96;94829.72;5012307;28;9327;-85
2023/08/11 08:07:01;;;;;;;;;;;;;;;28.34;41.57;94841.03;5030394;28;8751;-85
2023/08/11 08:09:33;;;;;;;;;;;;;;;28.33;42.10;94850.59;5024508;28;7261;-86
2023/08/11 08:12:01;;;;;;;;;;;;;;;28.29;41.51;94839.09;5009167;28;7539;-86
2023/08/11 08:14:28;;;;;;;;;;;;;;;28.28;42.07;94834.81;5026583;28;7273;-86
2023/08/11 08:17:00;;;;;;;;;;;;;;;28.28;41.84;94829.28;5008116;28;7071;-86
2023/08/11 08:19:29;;;;;;;;;;;;;;;28.34;42.13;94841.78;5023010;28;7002;-86
2023/08/11 08:21:55;;;;;;;;;;;;;;;28.34;41.95;94846.56;5015200;28;8758;-86
2023/08/11 08:24:21;;;;;;;;;;;;;;;28.31;41.90;94839.31;5026347;28;9006;-86
2023/08/11 08:26:48;;;;;;;;;;;;;;;28.30;41.95;94840.56;5009014;28;7283;-86
2023/08/11 08:29:19;;;;;;;;;;;;;;;28.31;41.57;94848.38;5026491;28;9020;-86
2023/08/11 08:31:46;;;;;;;;;;;;;;;28.33;42.28;94840.31;5009586;28;7320;-86
2023/08/11 08:34:14;;;;;;;;;;;;;;;28.32;41.81;94843.56;5009335;28;8722;-86
2023/08/11 08:36:40;;;;;;;;;;;;;;;28.33;42.37;94842.31;5010408;28;9037;-86
2023/08/11 08:39:11;;;;;;;;;;;;;;;28.31;42.01;94836.56;5009191;28;8861;-86
2023/08/11 08:41:42;;;;;;;;;;;;;;;28.35;41.53;94845.31;5024500;28;7350;-86
2023/08/11 08:44:09;;;;;;;;;;;;;;;28.34;42.05;94836.25;5007666;28;9077;-86
2023/08/11 08:46:38;;;;;;;;;;;;;;;28.27;41.84;94830.56;5007493;28;9194;-86
2023/08/11 08:49:16;;;;;;;;;;;;;;;28.35;42.11;94846.06;5008738;28;8718;-85
2023/08/11 08:51:44;;;;;;;;;;;;;;;28.33;41.97;94845.84;5021705;28;9096;-86
2023/08/11 08:54:10;;;;;;;;;;;;;;;28.32;41.71;94838.03;5011761;28;9027;-86
2023/08/11 08:56:38;;;;;;;;;;;;;;;28.33;41.63;94839.53;5021909;28;8767;-86
2023/08/11 08:59:05;;;;;;;;;;;;;;;28.31;41.59;94847.63;5010724;28;7270;-86
2023/08/11 09:01:34;;;;;;;;;;;;;;;28.35;41.29;94843.28;5033466;28;8731;-86
2023/08/11 09:04:03;;;;;;;;;;;;;;;28.36;42.12;94844.06;5020085;28;8783;-86
2023/08/11 09:06:32;;;;;;;;;;;;;;;28.37;41.55;94845.53;5007023;28;8738;-86
2023/08/11 09:08:59;;;;;;;;;;;;;;;28.36;41.55;94844.06;5007735;28;8764;-86
2023/08/11 09:11:28;;;;;;;;;;;;;;;28.35;41.82;94834.25;5008985;28;9108;-86
2023/08/11 09:14:02;;;;;;;;;;;;;;;28.38;41.04;94833.94;5004854;28;9107;-86
2023/08/11 09:16:32;;;;;;;;;;;;;;;28.36;42.02;94833.72;5021567;28;7280;-86
2023/08/11 09:19:00;;;;;;;;;;;;;;;28.39;41.63;94837.47;5009708;28;8712;-86
2023/08/11 09:21:27;;;;;;;;;;;;;;;28.38;41.57;94824.91;5008916;28;8706;-86
2023/08/11 09:23:54;;;;;;;;;;;;;;;28.34;41.60;94821.66;5005418;28;9004;-86
2023/08/11 09:26:24;;;;;;;;;;;;;;;28.40;41.67;94835.44;5006837;28;9130;-86
2023/08/11 09:28:51;;;;;;;;;;;;;;;28.41;41.38;94836.94;5008974;28;8802;-86
2023/08/11 09:31:24;;;;;;;;;;;;;;;28.39;41.38;94826.41;5031073;28;8753;-86
2023/08/11 09:33:52;;;;;;;;;;;;;;;28.35;41.41;94828.72;5020053;28;8717;-86
2023/08/11 09:36:19;;;;;;;;;;;;;;;28.36;41.44;94830.22;5012018;28;8727;-85
2023/08/11 09:38:48;;;;;;;;;;;;;;;28.38;41.55;94831.19;5019115;28;8608;-86
2023/08/11 09:41:17;;;;;;;;;;;;;;;28.38;41.76;94830.44;5006269;28;7281;-86
2023/08/11 09:43:50;;;;;;;;;;;;;;;28.30;41.60;94827.50;5017239;28;9147;-86
2023/08/11 09:46:16;;;;;;;;;;;;;;;28.34;41.84;94827.19;5007187;28;8560;-86
2023/08/11 09:48:42;;;;;;;;;;;;;;;28.32;42.05;94826.97;5008470;28;9032;-86
2023/08/11 09:51:12;;;;;;;;;;;;;;;28.42;41.97;94841.22;5027357;28;9014;-86
2023/08/11 09:53:40;;;;;;;;;;;;;;;28.35;41.77;94826.69;5003224;28;9068;-86
2023/08/11 09:56:12;;;;;;;;;;;;;;;28.36;42.00;94828.19;5009963;28;9103;-86
2023/08/11 09:58:48;;;;;;;;;;;;;;;28.34;41.97;94829.97;5008754;28;9009;-86
2023/08/11 10:01:16;;;;;;;;;;;;;;;28.34;42.26;94827.94;5005999;28;8930;-87
2023/08/11 10:03:47;;;;;;;;;;;;;;;28.37;42.42;94831.69;5003140;28;8997;-86
2023/08/11 10:06:27;;;;;;;;;;;;;;;28.40;42.30;94832.69;5005564;28;10033;-86
2023/08/11 10:09:00;;;;;;;;;;;;;;;28.34;43.70;94827.19;5005201;28;8749;-87
2023/08/11 10:11:32;;;;;;;;;;;;;;;28.32;43.60;94829.72;5020047;28;8796;-87
2023/08/11 10:14:03;;;;;;;;;;;;;;;28.38;43.75;94832.47;5002987;28;9028;-87
2023/08/11 10:16:30;;;;;;;;;;;;;;;28.45;43.60;94824.31;5022860;28;9037;-87
2023/08/11 10:19:00;;;;;;;;;;;;;;;28.46;43.33;94834.13;5009870;28;9082;-87
2023/08/11 10:21:27;;;;;;;;;;;;;;;28.49;43.85;94833.09;5007889;28;9035;-87
2023/08/11 10:23:56;;;;;;;;;;;;;;;28.50;42.92;94831.81;5010632;28;8738;-87
2023/08/11 10:26:24;;;;;;;;;;;;;;;28.49;43.43;94827.56;5024079;28;8611;-87
2023/08/11 10:28:51;;;;;;;;;;;;;;;28.48;43.02;94825.28;5006465;28;8909;-87
2023/08/11 10:31:17;;;;;;;;;;;;;;;28.44;43.42;94827.59;5022508;28;7169;-87
2023/08/11 10:33:57;;;;;;;;;;;;;;;28.45;43.02;94827.09;5006298;28;8657;-87
2023/08/11 10:36:27;;;;;;;;;;;;;;;28.44;42.99;94819.31;5007776;28;8742;-87
2023/08/11 10:39:08;;;;;;;;;;;;;;;28.49;42.54;94818.50;5013713;28;9184;-87
2023/08/11 10:41:34;;;;;;;;;;;;;;;28.45;42.81;94818.78;5011548;28;8800;-87
2023/08/11 10:44:00;;;;;;;;;;;;;;;28.51;43.36;94818.72;5009081;28;8759;-87
2023/08/11 10:46:31;;;;;;;;;;;;;;;28.48;41.95;94812.22;5011624;28;9094;-87
2023/08/11 10:49:20;;;;;;;;;;;;;;;28.53;42.67;94821.72;5009494;28;8874;-87
2023/08/11 10:51:47;;;;;;;;;;;;;;;28.43;42.05;94807.47;5026444;28;6873;-87
2023/08/11 10:54:27;;;;;;;;;;;;;;;28.49;41.90;94821.28;5021850;28;9198;-87
2023/08/11 10:57:02;;;;;;;;;;;;;;;28.51;41.49;94816.72;5004748;28;9022;-87
2023/08/11 10:59:30;;;;;;;;;;;;;;;28.51;41.44;94816.72;5005594;28;8588;-87
2023/08/11 11:01:57;;;;;;;;;;;;;;;28.53;42.17;94813.44;5007021;28;9205;-86
2023/08/11 11:04:30;;;;;;;;;;;;;;;28.59;41.78;94812.13;5020872;28;8800;-87
2023/08/11 11:06:58;;;;;;;;;;;;;;;28.60;41.64;94818.41;5004168;28;8748;-87
2023/08/11 11:09:28;;;;;;;;;;;;;;;28.60;41.69;94813.59;5006330;28;9023;-87
2023/08/11 11:11:57;;;;;;;;;;;;;;;28.60;41.72;94810.84;5024182;28;8717;-87
2023/08/11 11:14:24;;;;;;;;;;;;;;;28.59;41.86;94814.88;5004043;28;9282;-87
2023/08/11 11:16:54;;;;;;;;;;;;;;;28.57;42.07;94814.66;5005781;28;8760;-87
2023/08/11 11:19:26;;;;;;;;;;;;;;;28.63;42.13;94818.13;5008668;28;8583;-87
2023/08/11 11:21:54;;;;;;;;;;;;;;;28.57;41.79;94800.03;5023158;28;9068;-86
2023/08/11 11:24:20;;;;;;;;;;;;;;;28.61;42.08;94808.81;5007564;28;6875;-87
2023/08/11 11:26:46;;;;;;;;;;;;;;;28.56;41.58;94807.59;5010366;28;8680;-86
2023/08/11 11:29:12;;;;;;;;;;;;;;;28.65;41.91;94812.03;5007584;28;7284;-88
2023/08/11 11:31:43;;;;;;;;;;;;;;;28.61;42.37;94798.50;5010540;28;7505;-87
2023/08/11 11:34:09;;;;;;;;;;;;;;;28.62;41.96;94810.34;5023798;28;9033;-86
2023/08/11 11:36:38;;;;;;;;;;;;;;;28.59;41.98;94801.06;5012551;28;8839;-86
2023/08/11 11:39:05;;;;;;;;;;;;;;;28.65;42.04;94807.25;5001435;28;7036;-86
2023/08/11 11:41:31;;;;;;;;;;;;;;;28.61;41.50;94806.81;5008187;28;9003;-86
2023/08/11 11:43:58;;;;;;;;;;;;;;;28.59;41.93;94795.50;5008354;28;8415;-85
2023/08/11 11:46:25;;;;;;;;;;;;;;;28.64;42.28;94805.03;5004988;28;9036;-86
2023/08/11 11:48:53;;;;;;;;;;;;;;;28.68;42.15;94808.25;5029842;28;9181;-86
2023/08/11 11:51:25;;;;;;;;;;;;;;;28.63;41.95;94793.19;5011500;28;8728;-85
2023/08/11 11:54:00;;;;;;;;;;;;;;;28.67;41.86;94801.19;5019655;28;8804;-86
2023/08/11 11:56:32;;;;;;;;;;;;;;;28.69;42.03;94804.94;5026035;28;9071;-86
2023/08/11 11:58:58;;;;;;;;;;;;;;;28.68;42.13;94797.94;5025025;28;9186;-86
2023/08/11 12:01:27;;;;;;;;;;;;;;;28.73;42.24;94810.94;5025048;28;7275;-86
2023/08/11 12:03:58;;;;;;;;;;;;;;;28.77;41.75;94802.34;5028569;28;7070;-86
2023/08/11 12:06:28;;;;;;;;;;;;;;;28.76;41.66;94804.38;5025398;28;7015;-86
2023/08/11 12:09:04;;;;;;;;;;;;;;;28.72;41.72;94797.63;5031511;28;8640;-86
2023/08/11 12:11:31;;;;;;;;;;;;;;;28.79;42.58;94805.34;5030522;28;9067;-86
2023/08/11 12:13:59;;;;;;;;;;;;;;;28.80;42.13;94809.59;5009059;28;9094;-86
2023/08/11 12:16:26;;;;;;;;;;;;;;;28.72;41.57;94787.31;5016167;28;9033;-86
2023/08/11 12:18:53;;;;;;;;;;;;;;;28.80;42.00;94804.81;5011988;28;7065;-86
2023/08/11 12:21:19;;;;;;;;;;;;;;;28.72;42.09;94798.38;5010190;28;8692;-86
2023/08/11 12:23:45;;;;;;;;;;;;;;;28.79;42.34;94805.34;5027640;28;7351;-85
2023/08/11 12:26:11;;;;;;;;;;;;;;;28.79;41.86;94808.13;5011013;28;7319;-86
2023/08/11 12:28:37;;;;;;;;;;;;;;;28.80;41.96;94799.28;5010087;28;8746;-86
2023/08/11 12:31:03;;;;;;;;;;;;;;;28.80;42.24;94798.53;5003370;28;9325;-86
2023/08/11 12:33:38;;;;;;;;;;;;;;;28.88;41.77;94805.00;5007406;28;7291;-85
2023/08/11 12:36:05;;;;;;;;;;;;;;;28.87;41.75;94804.22;5016953;28;8826;-86
2023/08/11 12:38:35;;;;;;;;;;;;;;;28.89;41.82;94807.22;5026123;28;8644;-85
2023/08/11 12:41:01;;;;;;;;;;;;;;;28.82;42.04;94799.50;5014698;28;8751;-86
2023/08/11 12:43:32;;;;;;;;;;;;;;;28.88;42.05;94805.72;5011262;28;9026;-85
2023/08/11 12:46:00;;;;;;;;;;;;;;;28.85;42.02;94792.94;5027533;28;8859;-86
2023/08/11 12:48:31;;;;;;;;;;;;;;;28.90;42.08;94797.66;5025439;28;8764;-86
2023/08/11 12:50:59;;;;;;;;;;;;;;;28.91;41.58;94801.16;5013475;28;9007;-86
2023/08/11 12:53:25;;;;;;;;;;;;;;;28.96;41.68;94794.81;5020811;28;9242;-86
2023/08/11 12:55:51;;;;;;;;;;;;;;;28.97;42.39;94805.34;5021660;28;8764;-86
2023/08/11 12:58:20;;;;;;;;;;;;;;;28.98;41.81;94808.88;5023538;28;9040;-86
2023/08/11 13:00:46;;;;;;;;;;;;;;;28.96;42.08;94798.31;5011289;28;8735;-86
2023/08/11 13:03:12;;;;;;;;;;;;;;;29.00;42.18;94798.78;5029252;28;8708;-86
2023/08/11 13:05:45;;;;;;;;;;;;;;;29.02;41.60;94793.47;5016224;28;7119;-86